createdAt,value
2023-09-18T00:01:49.542Z,19.50
2023-09-18T00:05:52.404Z,19.40
2023-09-18T00:09:54.224Z,19.40
2023-09-18T00:13:56.009Z,19.40
2023-09-18T00:17:57.854Z,19.40
2023-09-18T00:22:02.066Z,19.50
2023-09-18T00:26:04.007Z,19.40
2023-09-18T00:30:07.492Z,19.50
2023-09-18T00:34:09.236Z,19.40
2023-09-18T00:38:10.977Z,19.40
2023-09-18T00:42:14.842Z,19.40
2023-09-18T00:46:16.761Z,19.40
2023-09-18T00:50:18.774Z,19.40
2023-09-18T00:54:20.568Z,19.30
2023-09-18T00:58:22.790Z,19.30
2023-09-18T01:02:24.909Z,19.30
2023-09-18T01:06:29.115Z,19.30
2023-09-18T01:10:36.021Z,19.20
2023-09-18T01:14:49.632Z,19.20
2023-09-18T01:18:51.968Z,19.20
2023-09-18T01:22:54.163Z,19.10
2023-09-18T01:26:55.891Z,19.10
2023-09-18T01:30:57.761Z,19.10
2023-09-18T01:35:01.599Z,19.10
2023-09-18T01:39:03.789Z,19.00
2023-09-18T01:43:05.506Z,19.00
2023-09-18T01:47:13.728Z,19.00
2023-09-18T01:51:16.858Z,18.90
2023-09-18T01:55:18.713Z,18.90
2023-09-18T01:59:20.967Z,18.80
2023-09-18T02:03:43.545Z,18.80
2023-09-18T02:07:45.186Z,18.80
2023-09-18T02:11:48.148Z,18.70
2023-09-18T02:15:50.033Z,18.70
2023-09-18T02:19:51.918Z,18.70
2023-09-18T02:23:54.210Z,18.60
2023-09-18T02:27:56.347Z,18.60
2023-09-18T02:31:58.411Z,18.60
2023-09-18T02:36:00.332Z,18.60
2023-09-18T02:40:02.094Z,18.60
2023-09-18T02:44:04.031Z,18.60
2023-09-18T02:48:06.066Z,18.60
2023-09-18T02:52:07.838Z,18.60
2023-09-18T02:56:09.658Z,18.50
2023-09-18T03:00:11.940Z,18.50
2023-09-18T03:04:14.045Z,18.50
2023-09-18T03:08:16.301Z,18.50
2023-09-18T03:12:18.577Z,18.40
2023-09-18T03:16:20.323Z,18.40
2023-09-18T03:20:30.785Z,18.40
2023-09-18T03:24:32.625Z,18.40
2023-09-18T03:28:34.502Z,18.30
2023-09-18T03:32:37.292Z,18.30
2023-09-18T03:36:40.289Z,18.40
2023-09-18T03:40:42.364Z,18.40
2023-09-18T03:44:44.138Z,18.40
2023-09-18T03:48:47.682Z,18.30
2023-09-18T03:52:49.526Z,18.40
2023-09-18T03:56:51.349Z,18.30
2023-09-18T04:00:53.536Z,18.30
2023-09-18T04:04:56.052Z,18.30
2023-09-18T04:08:58.016Z,18.20
2023-09-18T04:12:59.800Z,18.20
2023-09-18T04:17:01.744Z,18.20
2023-09-18T04:21:03.785Z,18.10
2023-09-18T04:25:06.668Z,18.10
2023-09-18T04:29:09.469Z,18.10
2023-09-18T04:33:13.071Z,18.20
2023-09-18T04:37:15.566Z,18.10
2023-09-18T04:41:17.653Z,18.10
2023-09-18T04:45:19.661Z,18.10
2023-09-18T04:49:21.837Z,18.10
2023-09-18T04:53:27.042Z,18.10
2023-09-18T04:57:29.741Z,18.10
2023-09-18T05:01:31.977Z,18.20
2023-09-18T05:05:34.036Z,18.30
2023-09-18T05:09:36.481Z,18.50
2023-09-18T05:13:38.821Z,18.70
2023-09-18T05:17:44.413Z,19.10
2023-09-18T05:21:47.714Z,19.70
2023-09-18T05:25:49.779Z,19.70
2023-09-18T05:29:52.025Z,19.80
2023-09-18T05:33:53.988Z,20.10
2023-09-18T05:37:57.996Z,20.60
2023-09-18T05:42:02.907Z,21.40
2023-09-18T05:46:04.718Z,22.50
2023-09-18T05:50:10.657Z,23.40
2023-09-18T05:54:12.685Z,23.70
2023-09-18T05:58:15.174Z,23.70
2023-09-18T06:02:19.695Z,23.80
2023-09-18T06:06:21.623Z,23.30
2023-09-18T06:10:23.787Z,23.00
2023-09-18T06:14:25.922Z,23.80
2023-09-18T06:18:27.741Z,24.80
2023-09-18T06:22:29.625Z,25.60
2023-09-18T06:26:31.414Z,26.10
2023-09-18T06:30:34.501Z,26.40
2023-09-18T06:34:36.321Z,26.40
2023-09-18T06:38:38.222Z,25.80
2023-09-18T06:42:40.518Z,25.80
2023-09-18T06:46:42.512Z,24.80
2023-09-18T06:50:44.401Z,25.30
2023-09-18T06:54:46.310Z,26.50
2023-09-18T06:58:49.084Z,26.90
2023-09-18T07:02:51.269Z,26.70
2023-09-18T07:06:54.693Z,27.50
2023-09-18T07:10:56.478Z,28.10
2023-09-18T07:14:59.727Z,28.90
2023-09-18T07:19:02.281Z,28.40
2023-09-18T07:23:05.819Z,28.90
2023-09-18T07:27:07.594Z,28.80
2023-09-18T07:31:10.265Z,28.40
2023-09-18T07:35:12.221Z,28.50
2023-09-18T07:39:14.005Z,28.60
2023-09-18T07:43:15.826Z,28.40
2023-09-18T07:47:17.662Z,28.50
2023-09-18T07:51:19.436Z,27.70
2023-09-18T07:55:21.279Z,28.10
2023-09-18T07:59:26.446Z,28.10
2023-09-18T08:03:29.463Z,28.80
2023-09-18T08:07:31.782Z,28.80
2023-09-18T08:11:33.975Z,29.60
2023-09-18T08:15:36.052Z,28.80
2023-09-18T08:19:38.417Z,29.10
2023-09-18T08:23:40.256Z,29.10
2023-09-18T08:27:44.277Z,29.50
2023-09-18T08:31:46.226Z,30.20
2023-09-18T08:35:48.248Z,29.90
2023-09-18T08:39:50.180Z,29.90
2023-09-18T08:43:52.055Z,29.50
2023-09-18T08:47:54.607Z,29.40
2023-09-18T08:51:56.816Z,29.10
2023-09-18T08:55:59.782Z,29.00
2023-09-18T09:00:07.515Z,29.40
2023-09-18T09:04:09.367Z,29.40
2023-09-18T09:08:11.277Z,29.60
2023-09-18T09:12:13.076Z,29.30
2023-09-18T09:16:15.044Z,28.90
2023-09-18T09:20:18.181Z,28.50
2023-09-18T09:24:20.822Z,28.30
2023-09-18T09:28:31.992Z,28.10
2023-09-18T09:32:34.960Z,27.90
2023-09-18T09:36:36.775Z,27.80
2023-09-18T09:40:42.208Z,28.00
2023-09-18T09:44:47.167Z,28.00
2023-09-18T09:49:07.649Z,28.00
2023-09-18T09:53:09.478Z,27.90
2023-09-18T09:57:11.498Z,28.10
2023-09-18T10:01:18.969Z,28.30
2023-09-18T10:05:21.006Z,28.60
2023-09-18T10:09:24.827Z,29.10
2023-09-18T10:13:35.893Z,29.40
2023-09-18T10:17:37.758Z,29.40
2023-09-18T10:21:50.324Z,29.40
2023-09-18T10:25:56.091Z,30.10
2023-09-18T10:29:57.912Z,30.30
2023-09-18T10:34:02.793Z,30.30
2023-09-18T10:38:04.753Z,30.50
2023-09-18T10:42:08.022Z,30.50
2023-09-18T10:46:10.044Z,30.30
2023-09-18T10:50:11.993Z,30.20
2023-09-18T10:54:17.551Z,30.30
2023-09-18T10:58:25.776Z,30.40
2023-09-18T11:02:28.319Z,31.00
2023-09-18T11:06:30.558Z,31.10
2023-09-18T11:10:32.552Z,30.80
2023-09-18T11:14:51.500Z,30.60
2023-09-18T11:19:00.200Z,30.40
2023-09-18T11:23:14.545Z,30.10
2023-09-18T11:27:16.316Z,30.10
2023-09-18T11:31:30.501Z,30.10
2023-09-18T11:35:33.760Z,30.20
2023-09-18T11:39:39.944Z,30.50
2023-09-18T11:43:43.560Z,31.30
2023-09-18T11:47:48.448Z,31.90
2023-09-18T11:51:51.972Z,32.00
2023-09-18T11:55:53.872Z,32.00
2023-09-18T11:59:56.901Z,32.00
2023-09-18T12:04:02.219Z,32.00
2023-09-18T12:08:04.815Z,31.90
2023-09-18T12:12:08.061Z,32.10
2023-09-18T12:16:10.752Z,32.30
2023-09-18T12:20:21.777Z,32.50
2023-09-18T12:24:24.409Z,32.40
2023-09-18T12:28:28.502Z,32.10
2023-09-18T12:32:30.955Z,32.10
2023-09-18T12:36:32.810Z,32.00
2023-09-18T12:40:34.774Z,31.90
2023-09-18T12:44:36.574Z,32.30
2023-09-18T12:48:46.546Z,32.50
2023-09-18T12:52:48.473Z,32.30
2023-09-18T12:56:50.466Z,32.50
2023-09-18T13:00:52.272Z,32.60
2023-09-18T13:04:55.345Z,32.40
2023-09-18T13:08:57.421Z,32.40
2023-09-18T13:13:00.776Z,32.10
2023-09-18T13:17:05.556Z,32.30
2023-09-18T13:21:14.056Z,32.40
2023-09-18T13:25:23.648Z,32.70
2023-09-18T13:29:25.657Z,32.50
2023-09-18T13:33:30.324Z,32.30
2023-09-18T13:37:35.543Z,31.90
2023-09-18T13:41:38.269Z,31.90
2023-09-18T13:45:40.583Z,32.00
2023-09-18T13:49:45.090Z,31.90
2023-09-18T13:53:49.301Z,31.80
2023-09-18T13:57:51.273Z,31.60
2023-09-18T14:01:53.303Z,31.40
2023-09-18T14:05:55.178Z,30.90
2023-09-18T14:09:57.358Z,30.70
2023-09-18T14:13:59.223Z,30.50
2023-09-18T14:18:01.106Z,30.30
2023-09-18T14:22:05.140Z,30.30
2023-09-18T14:26:06.962Z,30.30
2023-09-18T14:30:09.604Z,30.30
2023-09-18T14:34:11.721Z,30.30
2023-09-18T14:38:16.175Z,30.20
2023-09-18T14:42:18.225Z,29.90
2023-09-18T14:46:20.039Z,29.80
2023-09-18T14:50:22.378Z,29.80
2023-09-18T14:54:26.661Z,29.70
2023-09-18T14:58:28.729Z,29.50
2023-09-18T15:02:32.803Z,29.30
2023-09-18T15:06:35.294Z,29.20
2023-09-18T15:10:37.198Z,29.00
2023-09-18T15:14:39.091Z,29.00
2023-09-18T15:18:41.608Z,28.90
2023-09-18T15:22:43.471Z,28.70
2023-09-18T15:27:04.833Z,28.40
2023-09-18T15:31:06.685Z,28.10
2023-09-18T15:35:09.140Z,27.80
2023-09-18T15:39:10.970Z,27.60
2023-09-18T15:43:12.754Z,27.60
2023-09-18T15:47:15.334Z,27.40
2023-09-18T15:51:17.430Z,27.10
2023-09-18T15:55:19.271Z,26.90
2023-09-18T15:59:21.253Z,26.80
2023-09-18T16:03:24.278Z,26.70
2023-09-18T16:07:27.580Z,26.40
2023-09-18T16:11:29.813Z,26.30
2023-09-18T16:15:31.584Z,26.30
2023-09-18T16:19:33.434Z,26.10
2023-09-18T16:23:35.212Z,25.80
2023-09-18T16:27:37.225Z,25.70
2023-09-18T16:31:39.066Z,25.40
2023-09-18T16:35:41.109Z,25.10
2023-09-18T16:39:43.122Z,25.00
2023-09-18T16:43:44.956Z,24.80
2023-09-18T16:47:46.908Z,24.70
2023-09-18T16:51:51.588Z,24.60
2023-09-18T16:55:53.632Z,24.50
2023-09-18T16:59:56.524Z,24.40
2023-09-18T17:04:00.109Z,24.10
2023-09-18T17:08:04.878Z,24.00
2023-09-18T17:12:10.564Z,23.80
2023-09-18T17:16:15.103Z,23.70
2023-09-18T17:20:33.179Z,23.50
2023-09-18T17:24:42.662Z,23.30
2023-09-18T17:29:00.865Z,23.00
2023-09-18T17:33:08.694Z,23.00
2023-09-18T17:37:11.050Z,22.90
2023-09-18T17:41:18.233Z,22.70
2023-09-18T17:45:22.995Z,22.70
2023-09-18T17:49:50.617Z,22.60
2023-09-18T17:53:57.216Z,22.60
2023-09-18T17:58:07.956Z,22.40
2023-09-18T18:02:19.754Z,22.40
2023-09-18T18:06:36.057Z,22.30
2023-09-18T18:10:50.235Z,22.20
2023-09-18T18:14:57.476Z,22.20
2023-09-18T18:19:08.674Z,22.10
2023-09-18T18:23:17.562Z,21.90
2023-09-18T18:27:21.338Z,21.90
2023-09-18T18:31:23.300Z,21.90
2023-09-18T18:35:26.090Z,21.80
2023-09-18T18:39:37.737Z,21.70
2023-09-18T18:43:40.291Z,21.60
2023-09-18T18:47:54.933Z,21.60
2023-09-18T18:51:57.926Z,21.40
2023-09-18T18:56:02.240Z,21.40
2023-09-18T19:00:12.962Z,21.50
2023-09-18T19:04:16.328Z,21.40
2023-09-18T19:08:34.059Z,21.40
2023-09-18T19:16:54.463Z,21.20
2023-09-18T19:20:56.890Z,21.00
2023-09-18T19:24:58.951Z,20.70
2023-09-18T19:29:01.522Z,20.80
2023-09-18T19:33:07.785Z,20.80
2023-09-18T19:37:11.214Z,20.90
2023-09-18T19:41:15.552Z,20.90
2023-09-18T19:45:20.880Z,21.00
2023-09-18T19:49:23.186Z,20.90
2023-09-18T19:53:34.394Z,21.00
2023-09-18T19:57:44.951Z,20.90
2023-09-18T20:01:47.312Z,20.80
2023-09-18T20:05:50.126Z,20.80
2023-09-18T20:09:58.935Z,20.80
2023-09-18T20:14:00.857Z,20.70
2023-09-18T20:18:04.117Z,20.60
2023-09-18T20:22:06.102Z,20.60
2023-09-18T20:26:07.993Z,20.50
2023-09-18T20:30:12.247Z,20.40
2023-09-18T20:34:14.184Z,20.20
2023-09-18T20:38:16.851Z,20.20
2023-09-18T20:42:21.612Z,20.10
2023-09-18T20:46:23.781Z,19.90
2023-09-18T20:50:25.879Z,19.70
2023-09-18T20:54:27.924Z,19.50
2023-09-18T20:58:30.979Z,19.50
2023-09-18T21:02:33.057Z,19.40
2023-09-18T21:06:35.164Z,19.30
2023-09-18T21:10:50.389Z,19.20
2023-09-18T21:14:52.888Z,19.20
2023-09-18T21:18:54.602Z,19.20
2023-09-18T21:23:02.254Z,19.10
2023-09-18T21:27:04.296Z,19.10
2023-09-18T21:31:17.782Z,19.10
2023-09-18T21:35:20.372Z,19.10
2023-09-18T21:39:22.328Z,19.00
2023-09-18T21:43:24.254Z,19.00
2023-09-18T21:47:26.170Z,19.00
2023-09-18T21:51:28.449Z,18.80
2023-09-18T21:55:30.977Z,18.80
2023-09-18T21:59:32.846Z,18.70
2023-09-18T22:03:39.968Z,18.70
2023-09-18T22:07:42.361Z,18.70
2023-09-18T22:11:47.470Z,18.60
2023-09-18T22:15:52.312Z,18.50
2023-09-18T22:20:01.330Z,18.50
2023-09-18T22:24:03.761Z,18.40
2023-09-18T22:28:09.501Z,18.40
2023-09-18T22:32:11.720Z,18.40
2023-09-18T22:36:26.778Z,18.40
2023-09-18T22:40:30.020Z,18.30
2023-09-18T22:45:09.751Z,18.20
2023-09-18T22:49:49.203Z,18.20
2023-09-18T22:53:56.617Z,18.00
2023-09-18T22:57:58.628Z,18.00
2023-09-18T23:02:03.723Z,18.00
2023-09-18T23:06:06.431Z,18.00
2023-09-18T23:10:09.892Z,18.00
2023-09-18T23:14:12.105Z,18.00
2023-09-18T23:18:17.860Z,17.90
2023-09-18T23:22:20.051Z,17.90
2023-09-18T23:26:22.011Z,17.90
2023-09-18T23:30:24.529Z,18.00
2023-09-18T23:34:27.104Z,18.00
2023-09-18T23:38:28.931Z,18.00
2023-09-18T23:42:30.668Z,18.00
2023-09-18T23:46:32.652Z,18.00
2023-09-18T23:50:35.503Z,18.00
2023-09-18T23:54:40.609Z,18.00
2023-09-18T23:58:43.246Z,17.90
